createdAt,value
2022-09-30T00:01:58.345Z,7.32
2022-09-30T00:04:25.689Z,5.10
2022-09-30T00:06:54.494Z,9.18
2022-09-30T00:09:22.225Z,5.10
2022-09-30T00:11:49.502Z,6.25
2022-09-30T00:14:23.241Z,6.72
2022-09-30T00:16:50.624Z,5.38
2022-09-30T00:19:21.228Z,6.05
2022-09-30T00:21:48.509Z,4.65
2022-09-30T00:24:15.678Z,3.95
2022-09-30T00:26:42.769Z,4.22
2022-09-30T00:29:11.200Z,3.65
2022-09-30T00:31:38.750Z,4.68
2022-09-30T00:34:09.114Z,6.18
2022-09-30T00:36:51.419Z,7.70
2022-09-30T00:39:28.090Z,5.53
2022-09-30T00:42:02.492Z,4.70
2022-09-30T00:45:03.242Z,5.82
2022-09-30T00:48:14.399Z,5.78
2022-09-30T00:50:46.912Z,6.43
2022-09-30T00:53:29.791Z,5.82
2022-09-30T00:56:21.661Z,6.18
2022-09-30T00:59:20.766Z,4.63
2022-09-30T01:01:49.327Z,8.32
2022-09-30T01:04:20.851Z,7.32
2022-09-30T01:06:48.759Z,6.32
2022-09-30T01:09:16.365Z,9.52
2022-09-30T01:11:44.245Z,6.00
2022-09-30T01:14:25.024Z,7.97
2022-09-30T01:17:11.309Z,6.75
2022-09-30T01:20:14.515Z,5.75
2022-09-30T01:22:49.730Z,6.85
2022-09-30T01:25:38.188Z,9.45
2022-09-30T01:28:46.511Z,10.55
2022-09-30T01:32:02.612Z,7.78
2022-09-30T01:35:06.920Z,9.32
2022-09-30T01:38:04.566Z,8.45
2022-09-30T01:41:06.586Z,12.75
2022-09-30T01:44:05.130Z,8.52
2022-09-30T01:46:53.697Z,7.35
2022-09-30T01:49:31.606Z,10.73
2022-09-30T01:52:06.753Z,9.88
2022-09-30T01:55:01.525Z,11.40
2022-09-30T01:57:54.863Z,10.32
2022-09-30T02:00:22.749Z,8.27
2022-09-30T02:03:31.266Z,7.85
2022-09-30T02:06:13.276Z,8.77
2022-09-30T02:08:58.478Z,12.25
2022-09-30T02:11:29.244Z,11.35
2022-09-30T02:14:16.583Z,7.63
2022-09-30T02:17:02.347Z,10.70
2022-09-30T02:19:51.651Z,7.97
2022-09-30T02:22:44.679Z,7.97
2022-09-30T02:25:27.326Z,7.80
2022-09-30T02:28:01.513Z,11.63
2022-09-30T02:30:30.047Z,9.02
2022-09-30T02:33:03.124Z,9.55
2022-09-30T02:35:38.803Z,10.15
2022-09-30T02:41:02.467Z,10.45
2022-09-30T02:43:30.352Z,9.10
2022-09-30T02:46:30.045Z,9.98
2022-09-30T02:49:43.913Z,8.20
2022-09-30T02:52:25.570Z,8.70
2022-09-30T02:55:26.663Z,9.97
2022-09-30T02:58:16.872Z,7.65
2022-09-30T03:00:44.468Z,7.95
2022-09-30T03:03:24.413Z,8.27
2022-09-30T03:05:52.505Z,6.93
2022-09-30T03:08:19.666Z,7.93
2022-09-30T03:10:51.453Z,8.48
2022-09-30T03:13:54.439Z,8.18
2022-09-30T03:16:33.342Z,7.63
2022-09-30T03:19:12.112Z,7.22
2022-09-30T03:22:15.287Z,7.93
2022-09-30T03:25:17.157Z,9.60
2022-09-30T03:28:05.619Z,9.15
2022-09-30T03:30:40.519Z,6.97
2022-09-30T03:33:27.635Z,8.18
2022-09-30T03:36:05.078Z,9.15
2022-09-30T03:39:02.790Z,9.05
2022-09-30T03:42:10.474Z,8.45
2022-09-30T03:45:05.617Z,9.73
2022-09-30T03:47:40.797Z,7.72
2022-09-30T03:50:12.287Z,8.88
2022-09-30T03:52:39.435Z,10.50
2022-09-30T03:55:11.733Z,13.73
2022-09-30T03:57:39.324Z,13.10
2022-09-30T04:00:08.075Z,11.05
2022-09-30T04:02:38.995Z,10.32
2022-09-30T04:05:07.050Z,9.63
2022-09-30T04:07:36.035Z,11.40
2022-09-30T04:10:07.095Z,12.45
2022-09-30T04:12:34.290Z,12.48
2022-09-30T04:15:01.603Z,11.70
2022-09-30T04:17:32.019Z,11.63
2022-09-30T04:20:02.870Z,11.48
2022-09-30T04:22:29.935Z,13.13
2022-09-30T04:24:57.147Z,11.63
2022-09-30T04:27:24.285Z,11.43
2022-09-30T04:29:51.451Z,12.20
2022-09-30T04:32:25.855Z,10.93
2022-09-30T04:34:54.220Z,15.10
2022-09-30T04:37:21.340Z,13.60
2022-09-30T04:39:48.404Z,10.80
2022-09-30T04:42:15.608Z,10.25
2022-09-30T04:44:45.761Z,13.10
2022-09-30T04:47:12.787Z,13.07
2022-09-30T04:49:39.905Z,12.48
2022-09-30T04:52:10.299Z,11.52
2022-09-30T04:54:37.387Z,13.30
2022-09-30T04:57:04.765Z,12.63
2022-09-30T04:59:33.813Z,15.43
2022-09-30T05:02:01.957Z,14.82
2022-09-30T05:04:30.067Z,14.90
2022-09-30T05:06:57.499Z,12.18
2022-09-30T05:09:25.117Z,15.75
2022-09-30T05:11:52.991Z,12.50
2022-09-30T05:14:23.035Z,13.32
2022-09-30T05:16:50.174Z,12.60
2022-09-30T05:19:17.316Z,16.38
2022-09-30T05:21:44.986Z,13.57
2022-09-30T05:24:12.270Z,16.58
2022-09-30T05:26:41.028Z,11.57
2022-09-30T05:29:10.043Z,12.10
2022-09-30T05:31:42.562Z,17.35
2022-09-30T05:34:09.803Z,16.25
2022-09-30T05:36:36.982Z,12.20
2022-09-30T05:39:04.361Z,14.70
2022-09-30T05:41:31.644Z,19.98
2022-09-30T05:44:01.268Z,13.70
2022-09-30T05:46:28.828Z,16.27
2022-09-30T05:48:56.154Z,14.70
2022-09-30T05:51:23.801Z,20.15
2022-09-30T05:53:51.708Z,15.32
2022-09-30T05:56:22.317Z,11.85
2022-09-30T05:58:50.906Z,17.23
2022-09-30T06:01:18.775Z,13.82
2022-09-30T06:03:49.569Z,14.55
2022-09-30T06:06:23.386Z,16.02
2022-09-30T06:08:51.344Z,14.13
2022-09-30T06:11:23.483Z,16.70
2022-09-30T06:13:51.406Z,16.63
2022-09-30T06:16:23.702Z,15.48
2022-09-30T06:18:51.143Z,16.52
2022-09-30T06:21:19.434Z,15.30
2022-09-30T06:23:46.762Z,12.05
2022-09-30T06:26:14.727Z,19.92
2022-09-30T06:28:42.785Z,16.40
2022-09-30T06:31:11.468Z,15.45
2022-09-30T06:33:38.703Z,14.82
2022-09-30T06:36:08.898Z,19.13
2022-09-30T06:38:37.236Z,19.27
2022-09-30T06:41:05.203Z,17.88
2022-09-30T06:43:35.687Z,21.17
2022-09-30T06:46:11.785Z,15.93
2022-09-30T06:48:42.259Z,21.92
2022-09-30T06:51:10.913Z,15.27
2022-09-30T06:53:40.207Z,13.95
2022-09-30T06:56:07.602Z,22.85
2022-09-30T06:58:37.872Z,13.95
2022-09-30T07:01:07.199Z,12.57
2022-09-30T07:03:36.221Z,11.40
2022-09-30T07:06:06.263Z,14.77
2022-09-30T07:08:35.817Z,12.38
2022-09-30T07:11:14.580Z,10.57
2022-09-30T07:13:45.255Z,13.60
2022-09-30T07:16:17.591Z,12.02
2022-09-30T07:18:45.843Z,12.98
2022-09-30T07:21:16.670Z,14.15
2022-09-30T07:23:48.608Z,13.40
2022-09-30T07:26:21.595Z,14.82
2022-09-30T07:28:50.161Z,12.45
2022-09-30T07:31:34.915Z,17.40
2022-09-30T07:34:09.215Z,12.27
2022-09-30T07:36:39.471Z,16.13
2022-09-30T07:39:10.242Z,13.82
2022-09-30T07:41:44.335Z,11.45
2022-09-30T07:44:16.080Z,12.73
2022-09-30T07:46:46.712Z,13.70
2022-09-30T07:49:24.628Z,16.05
2022-09-30T07:51:58.764Z,13.73
2022-09-30T07:54:32.315Z,18.63
2022-09-30T07:57:10.199Z,15.13
2022-09-30T07:59:41.044Z,15.20
2022-09-30T08:02:15.491Z,16.13
2022-09-30T08:04:44.354Z,19.45
2022-09-30T08:07:14.894Z,16.77
2022-09-30T08:09:42.564Z,17.17
2022-09-30T08:12:10.118Z,16.17
2022-09-30T08:14:41.192Z,19.42
2022-09-30T08:17:08.385Z,18.83
2022-09-30T08:19:35.540Z,19.67
2022-09-30T08:24:35.676Z,22.85
2022-09-30T08:27:05.798Z,17.70
2022-09-30T08:29:53.928Z,19.88
2022-09-30T08:32:25.125Z,21.27
2022-09-30T08:34:52.624Z,18.65
2022-09-30T08:37:20.140Z,19.15
2022-09-30T08:39:48.515Z,21.38
2022-09-30T08:43:11.710Z,19.25
2022-09-30T08:46:05.795Z,18.05
2022-09-30T08:49:27.811Z,19.55
2022-09-30T08:51:56.408Z,22.90
2022-09-30T08:54:30.028Z,25.02
2022-09-30T08:56:57.358Z,20.63
2022-09-30T08:59:35.159Z,19.77
2022-09-30T09:02:34.669Z,20.50
2022-09-30T09:05:08.071Z,21.05
2022-09-30T09:07:57.692Z,23.33
2022-09-30T09:10:54.760Z,17.23
2022-09-30T09:13:44.898Z,14.65
2022-09-30T09:16:25.485Z,16.23
2022-09-30T09:18:58.559Z,15.30
2022-09-30T09:21:50.568Z,16.55
2022-09-30T09:24:45.771Z,20.08
2022-09-30T09:27:41.678Z,13.00
2022-09-30T09:30:21.576Z,17.27
2022-09-30T09:33:00.200Z,14.73
2022-09-30T09:35:51.679Z,18.48
2022-09-30T09:39:02.891Z,14.98
2022-09-30T09:41:45.327Z,14.38
2022-09-30T09:44:30.553Z,17.48
2022-09-30T09:47:17.337Z,18.98
2022-09-30T09:49:58.161Z,16.58
2022-09-30T09:52:50.429Z,14.68
2022-09-30T09:55:22.337Z,14.32
2022-09-30T09:58:14.833Z,14.45
2022-09-30T10:00:48.619Z,15.48
2022-09-30T10:03:26.847Z,17.00
2022-09-30T10:06:04.285Z,17.60
2022-09-30T10:08:35.666Z,23.77
2022-09-30T10:11:20.685Z,18.20
2022-09-30T10:13:48.358Z,14.25
2022-09-30T10:16:37.224Z,13.40
2022-09-30T10:19:18.598Z,10.93
2022-09-30T10:21:46.250Z,10.57
2022-09-30T10:24:30.893Z,10.23
2022-09-30T10:26:58.290Z,10.20
2022-09-30T10:29:32.166Z,11.02
2022-09-30T10:32:09.869Z,11.57
2022-09-30T10:34:42.273Z,9.80
2022-09-30T10:37:22.803Z,8.18
2022-09-30T10:40:12.736Z,9.02
2022-09-30T10:42:41.812Z,14.07
2022-09-30T10:45:37.175Z,8.32
2022-09-30T10:48:16.578Z,9.68
2022-09-30T10:50:53.869Z,11.25
2022-09-30T10:53:29.702Z,10.07
2022-09-30T10:55:57.740Z,10.52
2022-09-30T10:58:52.458Z,11.57
2022-09-30T11:01:43.856Z,9.75
2022-09-30T11:04:13.622Z,9.88
2022-09-30T11:06:47.069Z,10.32
2022-09-30T11:09:59.101Z,11.05
2022-09-30T11:12:45.682Z,8.52
2022-09-30T11:15:26.136Z,12.07
2022-09-30T11:18:04.966Z,11.15
2022-09-30T11:20:47.163Z,10.65
2022-09-30T11:23:26.626Z,11.77
2022-09-30T11:26:38.281Z,13.40
2022-09-30T11:29:46.085Z,11.27
2022-09-30T11:32:45.093Z,11.45
2022-09-30T11:36:02.991Z,10.07
2022-09-30T11:38:39.273Z,12.27
2022-09-30T11:41:14.057Z,10.48
2022-09-30T11:44:34.227Z,12.57
2022-09-30T11:47:28.579Z,12.35
2022-09-30T11:50:16.718Z,10.85
2022-09-30T11:53:01.350Z,9.38
2022-09-30T11:55:50.097Z,8.57
2022-09-30T11:58:40.649Z,9.32
2022-09-30T12:01:30.578Z,8.50
2022-09-30T12:04:08.570Z,9.05
2022-09-30T12:06:59.147Z,9.85
2022-09-30T12:09:38.940Z,9.45
2022-09-30T12:12:17.148Z,10.80
2022-09-30T12:15:02.733Z,10.15
2022-09-30T12:17:49.851Z,10.25
2022-09-30T12:20:27.478Z,11.45
2022-09-30T12:23:18.991Z,10.13
2022-09-30T12:26:06.920Z,8.48
2022-09-30T12:28:59.985Z,7.22
2022-09-30T12:32:21.585Z,9.07
2022-09-30T12:35:28.948Z,9.30
2022-09-30T12:41:31.730Z,4.53
2022-09-30T12:44:35.021Z,6.85
2022-09-30T12:47:26.260Z,6.05
2022-09-30T12:49:59.003Z,8.48
2022-09-30T12:52:31.820Z,6.70
2022-09-30T12:55:37.327Z,4.47
2022-09-30T12:58:05.547Z,10.98
2022-09-30T13:00:37.738Z,4.90
2022-09-30T13:03:15.415Z,5.15
2022-09-30T13:05:45.517Z,10.15
2022-09-30T13:08:32.424Z,6.22
2022-09-30T13:11:05.070Z,4.65
2022-09-30T13:13:35.017Z,7.43
2022-09-30T13:16:04.475Z,4.35
2022-09-30T13:18:31.467Z,3.45
2022-09-30T13:21:05.156Z,3.33
2022-09-30T13:23:46.829Z,7.32
2022-09-30T13:26:26.426Z,5.88
2022-09-30T13:29:19.773Z,6.13
2022-09-30T13:34:32.748Z,2.45
2022-09-30T13:37:05.182Z,3.22
2022-09-30T13:39:35.434Z,4.82
2022-09-30T13:42:29.901Z,3.97
2022-09-30T13:45:16.307Z,4.30
2022-09-30T13:48:16.581Z,2.50
2022-09-30T13:50:51.233Z,5.35
2022-09-30T13:53:35.518Z,3.20
2022-09-30T13:56:09.348Z,3.28
2022-09-30T13:59:31.732Z,2.45
2022-09-30T14:02:22.500Z,3.38
2022-09-30T14:05:35.186Z,3.95
2022-09-30T14:09:06.801Z,2.83
2022-09-30T14:11:54.203Z,3.40
2022-09-30T14:14:36.762Z,1.83
2022-09-30T14:17:21.487Z,3.70
2022-09-30T14:20:21.571Z,4.15
2022-09-30T14:22:48.940Z,2.22
2022-09-30T14:25:21.633Z,2.20
2022-09-30T14:28:37.825Z,2.90
2022-09-30T14:31:08.212Z,2.97
2022-09-30T14:33:40.512Z,2.45
2022-09-30T14:36:22.015Z,6.28
2022-09-30T14:38:59.285Z,3.90
2022-09-30T14:41:31.442Z,3.03
2022-09-30T14:44:07.934Z,6.68
2022-09-30T14:46:41.983Z,2.10
2022-09-30T14:49:18.222Z,2.30
2022-09-30T14:51:48.757Z,2.15
2022-09-30T14:54:24.699Z,5.88
2022-09-30T14:56:54.841Z,2.53
2022-09-30T14:59:27.624Z,3.25
2022-09-30T15:02:22.009Z,2.70
2022-09-30T15:05:00.426Z,2.55
2022-09-30T15:07:31.380Z,1.55
2022-09-30T15:10:02.576Z,3.80
2022-09-30T15:12:38.838Z,2.00
2022-09-30T15:15:27.205Z,2.63
2022-09-30T15:17:55.850Z,3.63
2022-09-30T15:20:32.657Z,1.77
2022-09-30T15:23:06.716Z,4.75
2022-09-30T15:25:34.069Z,4.60
2022-09-30T15:28:01.680Z,3.17
2022-09-30T15:30:33.215Z,2.47
2022-09-30T15:33:04.899Z,3.10
2022-09-30T15:35:35.465Z,3.60
2022-09-30T15:38:15.564Z,2.20
2022-09-30T15:40:50.533Z,3.35
2022-09-30T15:43:33.159Z,3.75
2022-09-30T15:46:16.912Z,2.83
2022-09-30T15:48:45.112Z,1.95
2022-09-30T15:51:41.362Z,3.38
2022-09-30T15:54:35.028Z,2.85
2022-09-30T15:57:47.500Z,2.60
2022-09-30T16:00:37.792Z,3.42
2022-09-30T16:03:31.289Z,3.95
2022-09-30T16:06:14.305Z,2.90
2022-09-30T16:08:53.924Z,3.00
2022-09-30T16:11:37.594Z,11.95
2022-09-30T16:14:08.253Z,24.38
2022-09-30T16:16:39.222Z,13.40
2022-09-30T16:19:15.725Z,18.77
2022-09-30T16:21:52.133Z,14.68
2022-09-30T16:24:28.616Z,21.10
2022-09-30T16:26:59.573Z,9.43
2022-09-30T16:29:27.793Z,4.35
2022-09-30T16:31:57.218Z,6.38
2022-09-30T16:34:29.700Z,4.45
2022-09-30T16:37:14.801Z,3.28
2022-09-30T16:39:42.318Z,4.35
2022-09-30T16:42:19.357Z,3.03
2022-09-30T16:44:49.914Z,3.75
2022-09-30T16:47:21.058Z,2.85
2022-09-30T16:49:48.575Z,3.67
2022-09-30T16:52:16.107Z,2.72
2022-09-30T16:54:43.308Z,2.80
2022-09-30T16:57:15.143Z,3.58
2022-09-30T16:59:42.327Z,2.15
2022-09-30T17:02:14.828Z,4.68
2022-09-30T17:04:46.808Z,3.13
2022-09-30T17:07:14.602Z,3.17
2022-09-30T17:09:43.082Z,2.65
2022-09-30T17:12:14.718Z,9.32
2022-09-30T17:14:43.848Z,3.67
2022-09-30T17:17:13.688Z,3.50
2022-09-30T17:19:41.224Z,3.25
2022-09-30T17:22:08.525Z,3.78
2022-09-30T17:24:39.295Z,8.90
2022-09-30T17:27:07.848Z,3.35
2022-09-30T17:29:37.891Z,3.85
2022-09-30T17:32:10.814Z,2.80
2022-09-30T17:34:38.010Z,5.13
2022-09-30T17:37:05.663Z,3.35
2022-09-30T17:39:33.059Z,4.28
2022-09-30T17:42:19.449Z,3.10
2022-09-30T17:44:49.557Z,10.32
2022-09-30T17:47:21.440Z,4.93
2022-09-30T17:49:49.012Z,5.28
2022-09-30T17:52:18.180Z,6.32
2022-09-30T17:54:51.134Z,5.75
2022-09-30T17:57:22.602Z,5.10
2022-09-30T17:59:50.366Z,5.47
2022-09-30T18:02:18.512Z,3.78
2022-09-30T18:04:49.340Z,3.58
2022-09-30T18:07:20.182Z,5.85
2022-09-30T18:09:47.375Z,5.70
2022-09-30T18:12:16.288Z,4.82
2022-09-30T18:14:45.129Z,8.32
2022-09-30T18:17:13.778Z,4.28
2022-09-30T18:19:41.199Z,6.82
2022-09-30T18:22:08.646Z,6.97
2022-09-30T18:24:58.165Z,4.88
2022-09-30T18:27:28.069Z,3.45
2022-09-30T18:29:55.361Z,6.68
2022-09-30T18:32:22.557Z,4.88
2022-09-30T18:34:50.262Z,6.20
2022-09-30T18:37:18.039Z,5.50
2022-09-30T18:39:45.591Z,6.53
2022-09-30T18:42:19.136Z,8.63
2022-09-30T18:44:48.932Z,7.38
2022-09-30T18:47:20.089Z,7.63
2022-09-30T18:49:48.690Z,8.98
2022-09-30T18:52:20.819Z,12.00
2022-09-30T18:54:48.792Z,10.95
2022-09-30T18:57:17.600Z,9.20
2022-09-30T18:59:45.401Z,11.88
2022-09-30T19:02:18.159Z,9.63
2022-09-30T19:04:47.938Z,12.85
2022-09-30T19:07:21.860Z,8.25
2022-09-30T19:09:52.513Z,8.88
2022-09-30T19:12:21.506Z,10.00
2022-09-30T19:14:48.845Z,11.63
2022-09-30T19:17:20.312Z,7.93
2022-09-30T19:19:48.206Z,9.35
2022-09-30T19:22:16.249Z,7.63
2022-09-30T19:24:43.972Z,9.32
2022-09-30T19:27:14.668Z,8.60
2022-09-30T19:29:42.337Z,6.43
2022-09-30T19:32:12.766Z,6.63
2022-09-30T19:34:40.276Z,9.10
2022-09-30T19:37:22.524Z,6.45
2022-09-30T19:39:57.440Z,9.63
2022-09-30T19:42:30.082Z,7.93
2022-09-30T19:44:57.768Z,9.65
2022-09-30T19:47:33.547Z,9.23
2022-09-30T19:50:02.352Z,5.70
2022-09-30T19:52:30.345Z,5.28
2022-09-30T19:55:06.016Z,6.88
2022-09-30T19:57:37.270Z,8.18
2022-09-30T20:00:06.422Z,7.30
2022-09-30T20:02:35.802Z,12.70
2022-09-30T20:05:04.677Z,5.18
2022-09-30T20:07:33.183Z,7.32
2022-09-30T20:10:01.078Z,5.28
2022-09-30T20:12:29.351Z,4.97
2022-09-30T20:15:15.303Z,5.55
2022-09-30T20:17:43.414Z,7.72
2022-09-30T20:20:32.450Z,5.95
2022-09-30T20:23:03.694Z,5.40
2022-09-30T20:25:31.339Z,6.35
2022-09-30T20:27:58.858Z,5.80
2022-09-30T20:30:29.975Z,7.82
2022-09-30T20:33:02.260Z,7.18
2022-09-30T20:35:36.814Z,6.32
2022-09-30T20:38:04.241Z,7.45
2022-09-30T20:40:33.027Z,7.32
2022-09-30T20:43:02.017Z,6.57
2022-09-30T20:45:29.265Z,6.35
2022-09-30T20:48:01.085Z,7.25
2022-09-30T20:50:35.153Z,6.72
2022-09-30T20:53:09.658Z,9.13
2022-09-30T20:55:39.806Z,5.75
2022-09-30T20:58:08.583Z,7.05
2022-09-30T21:00:41.952Z,7.03
2022-09-30T21:03:13.332Z,5.25
2022-09-30T21:05:40.874Z,7.00
2022-09-30T21:08:11.359Z,6.03
2022-09-30T21:10:42.066Z,6.43
2022-09-30T21:13:11.202Z,5.35
2022-09-30T21:15:39.711Z,6.28
2022-09-30T21:18:07.930Z,5.78
2022-09-30T21:20:36.316Z,9.88
2022-09-30T21:23:04.326Z,6.28
2022-09-30T21:25:32.068Z,5.10
2022-09-30T21:27:59.261Z,6.75
2022-09-30T21:30:29.265Z,7.05
2022-09-30T21:32:56.596Z,8.88
2022-09-30T21:35:23.724Z,11.70
2022-09-30T21:37:53.931Z,5.47
2022-09-30T21:40:20.971Z,6.00
2022-09-30T21:42:53.996Z,6.88
2022-09-30T21:45:21.698Z,7.75
2022-09-30T21:47:49.877Z,6.93
2022-09-30T21:50:19.712Z,8.57
2022-09-30T21:52:47.512Z,9.60
2022-09-30T21:55:15.292Z,7.93
2022-09-30T21:57:47.418Z,8.63
2022-09-30T22:00:14.668Z,7.55
2022-09-30T22:02:46.282Z,8.32
2022-09-30T22:05:20.648Z,12.27
2022-09-30T22:07:48.671Z,8.82
2022-09-30T22:10:17.071Z,10.45
2022-09-30T22:12:44.326Z,9.88
2022-09-30T22:15:15.057Z,9.32
2022-09-30T22:17:42.196Z,9.75
2022-09-30T22:20:11.024Z,10.98
2022-09-30T22:22:38.408Z,9.80
2022-09-30T22:25:06.637Z,13.60
2022-09-30T22:27:34.183Z,12.55
2022-09-30T22:30:01.311Z,11.88
2022-09-30T22:32:28.929Z,11.38
2022-09-30T22:35:14.717Z,10.15
2022-09-30T22:38:00.653Z,14.35
2022-09-30T22:40:27.728Z,9.93
2022-09-30T22:42:54.760Z,11.63
2022-09-30T22:45:25.535Z,13.32
2022-09-30T22:47:58.225Z,12.27
2022-09-30T22:50:28.740Z,12.20
2022-09-30T22:52:55.888Z,13.88
2022-09-30T22:55:23.171Z,15.95
2022-09-30T22:57:50.255Z,15.80
2022-09-30T23:00:20.684Z,17.15
2022-09-30T23:02:48.377Z,16.55
2022-09-30T23:05:15.623Z,15.80
2022-09-30T23:07:42.856Z,13.95
2022-09-30T23:10:10.428Z,19.20
2022-09-30T23:12:37.743Z,14.18
2022-09-30T23:15:08.735Z,15.77
2022-09-30T23:17:42.057Z,13.98
2022-09-30T23:20:09.477Z,18.98
2022-09-30T23:22:40.047Z,16.58
2022-09-30T23:25:08.753Z,15.77
2022-09-30T23:27:36.487Z,17.35
2022-09-30T23:30:04.326Z,16.75
2022-09-30T23:32:34.770Z,18.92
2022-09-30T23:35:06.010Z,19.10
2022-09-30T23:37:33.119Z,25.77
2022-09-30T23:40:00.505Z,18.65
2022-09-30T23:42:34.000Z,18.30
2022-09-30T23:45:04.303Z,20.00
2022-09-30T23:47:31.475Z,21.17
2022-09-30T23:49:58.532Z,22.60
2022-09-30T23:52:29.964Z,19.98
2022-09-30T23:54:56.988Z,20.65
2022-09-30T23:57:24.207Z,23.35
2022-09-30T23:59:51.481Z,22.42
